Time;durP1;ratioP1;P1;durP2;ratioP2;P2;SDS_P1;SDS_P2;PMS_P1;PMS_P2;Temp;Humidity;BMP_temperature;BMP_pressure;BME280_temperature;BME280_humidity;BME280_pressure;Samples;Min_cycle;Max_cycle;Signal;HPM_P1;HPM_P2
2021/07/30 00:01:07;;;;;;;0.73;0.53;;;18.50;99.90;;;;;;5037929;28;20033;-85
2021/07/30 00:03:33;;;;;;;0.20;0.20;;;18.40;99.90;;;;;;5032100;28;20112;-85
2021/07/30 00:05:58;;;;;;;0.67;0.40;;;18.40;99.90;;;;;;5032587;28;20428;-85
2021/07/30 00:08:24;;;;;;;0.33;0.33;;;18.40;99.90;;;;;;5031973;28;20037;-86
2021/07/30 00:10:54;;;;;;;0.10;0.10;;;18.30;99.90;;;;;;5031992;28;20029;-85
2021/07/30 00:13:20;;;;;;;0.70;0.52;;;18.30;99.90;;;;;;5029348;28;20663;-86
2021/07/30 00:15:46;;;;;;;0.03;0.03;;;18.20;99.90;;;;;;5031731;28;20436;-86
2021/07/30 00:18:12;;;;;;;0.00;0.00;;;18.20;99.90;;;;;;5033286;28;20079;-86
2021/07/30 00:20:37;;;;;;;0.33;0.33;;;18.20;99.90;;;;;;5051465;28;20439;-85
2021/07/30 00:23:04;;;;;;;0.50;0.50;;;18.20;99.90;;;;;;5051841;28;20411;-85
2021/07/30 00:25:29;;;;;;;0.03;0.03;;;18.30;99.90;;;;;;5043766;28;20041;-85
2021/07/30 00:27:55;;;;;;;0.23;0.23;;;18.40;99.90;;;;;;5051018;28;20029;-86
2021/07/30 00:30:21;;;;;;;0.10;0.10;;;18.30;99.90;;;;;;5051164;28;20554;-86
2021/07/30 00:32:47;;;;;;;0.00;0.00;;;18.30;99.90;;;;;;5049684;28;20111;-85
2021/07/30 00:35:13;;;;;;;0.63;0.40;;;18.20;99.90;;;;;;5051220;28;20025;-86
2021/07/30 00:37:39;;;;;;;0.30;0.30;;;18.00;99.90;;;;;;5051248;28;20055;-86
2021/07/30 00:40:05;;;;;;;0.50;0.50;;;18.00;99.90;;;;;;5031370;28;20100;-85
2021/07/30 00:42:32;;;;;;;0.15;0.15;;;18.00;99.90;;;;;;5046791;28;20029;-85
2021/07/30 00:45:02;;;;;;;0.40;0.40;;;18.00;99.90;;;;;;5031010;28;20079;-86
2021/07/30 00:47:31;;;;;;;0.20;0.17;;;18.00;99.90;;;;;;5031090;28;20025;-86
2021/07/30 00:49:59;;;;;;;0.38;0.13;;;18.10;99.90;;;;;;5030770;28;20099;-85
2021/07/30 00:52:28;;;;;;;0.00;0.00;;;18.20;99.90;;;;;;5029623;28;20512;-86
2021/07/30 00:54:55;;;;;;;0.00;0.00;;;18.10;99.90;;;;;;5031050;28;20032;-86
2021/07/30 00:57:23;;;;;;;0.65;0.20;;;18.10;99.90;;;;;;5030491;28;20060;-86
2021/07/30 00:59:50;;;;;;;0.20;0.20;;;18.10;99.90;;;;;;5030706;28;20017;-85
2021/07/30 01:02:17;;;;;;;1.08;0.13;;;18.10;99.90;;;;;;5031043;28;20038;-85
2021/07/30 01:04:42;;;;;;;;;;;18.10;99.90;;;;;;5031299;28;20452;-85
2021/07/30 01:07:08;;;;;;;0.28;0.28;;;18.00;99.90;;;;;;5030710;28;20007;-86
2021/07/30 01:09:34;;;;;;;0.03;0.03;;;17.90;99.90;;;;;;5030778;28;20114;-85
2021/07/30 01:12:01;;;;;;;0.00;0.00;;;17.90;99.90;;;;;;5030521;28;20079;-86
2021/07/30 01:14:28;;;;;;;0.08;0.08;;;17.80;99.90;;;;;;5029468;28;20717;-85
2021/07/30 01:16:54;;;;;;;0.22;0.22;;;17.80;99.90;;;;;;5029375;28;20095;-86
2021/07/30 01:19:24;;;;;;;1.00;0.43;;;17.70;99.90;;;;;;5030653;28;20025;-86
2021/07/30 01:21:55;;;;;;;0.20;0.20;;;17.70;99.90;;;;;;5030598;28;20061;-85
2021/07/30 01:24:23;;;;;;;0.10;0.10;;;17.60;99.90;;;;;;5030454;28;20493;-86
2021/07/30 01:26:50;;;;;;;0.28;0.28;;;17.60;99.90;;;;;;5030700;28;20040;-85
2021/07/30 01:29:16;;;;;;;0.75;0.75;;;17.50;99.90;;;;;;5030510;28;20049;-85
2021/07/30 01:31:41;;;;;;;0.43;0.43;;;17.40;99.90;;;;;;5030192;28;20147;-85
2021/07/30 01:34:07;;;;;;;0.70;0.50;;;17.30;99.90;;;;;;5028734;28;20032;-85
2021/07/30 01:36:33;;;;;;;0.20;0.20;;;17.30;99.90;;;;;;5030675;28;20025;-85
2021/07/30 01:38:59;;;;;;;0.43;0.43;;;17.30;99.90;;;;;;5030295;28;20132;-85
2021/07/30 01:41:25;;;;;;;0.30;0.30;;;17.30;99.90;;;;;;5028991;28;20164;-85
2021/07/30 01:43:51;;;;;;;0.30;0.20;;;17.30;99.90;;;;;;5030139;28;20322;-85
2021/07/30 01:46:17;;;;;;;0.57;0.40;;;17.20;99.90;;;;;;5030296;28;20488;-85
2021/07/30 01:48:43;;;;;;;0.83;0.83;;;17.20;99.90;;;;;;5030642;28;20048;-85
2021/07/30 01:51:09;;;;;;;0.20;0.20;;;17.10;99.90;;;;;;5029902;28;20047;-85
2021/07/30 01:53:35;;;;;;;0.50;0.30;;;17.10;99.90;;;;;;5030243;28;20033;-85
2021/07/30 01:56:04;;;;;;;1.30;0.50;;;17.10;99.90;;;;;;5029960;28;20053;-85
2021/07/30 01:58:36;;;;;;;0.10;0.10;;;17.10;99.90;;;;;;5030063;28;20653;-85
2021/07/30 02:01:04;;;;;;;0.00;0.00;;;17.10;99.90;;;;;;5029924;28;20029;-85
2021/07/30 02:03:30;;;;;;;0.13;0.13;;;17.10;99.90;;;;;;5030042;28;20022;-85
2021/07/30 02:05:56;;;;;;;0.10;0.10;;;17.10;99.90;;;;;;5029956;28;20715;-85
2021/07/30 02:08:22;;;;;;;1.30;0.77;;;17.00;99.90;;;;;;5029893;28;20029;-85
2021/07/30 02:10:48;;;;;;;0.33;0.33;;;16.90;99.90;;;;;;5030116;28;20719;-85
2021/07/30 02:15:58;;;;;;;0.43;0.40;;;16.80;99.90;;;;;;5030376;28;20040;-85
2021/07/30 02:18:23;;;;;;;0.20;0.20;;;16.80;99.90;;;;;;5028499;28;20766;-85
2021/07/30 02:20:49;;;;;;;0.83;0.40;;;16.70;99.90;;;;;;5030200;28;20033;-85
2021/07/30 02:23:15;;;;;;;0.67;0.50;;;16.70;99.90;;;;;;5030022;28;20032;-85
2021/07/30 02:25:41;;;;;;;0.87;0.50;;;16.70;99.90;;;;;;5029782;28;20049;-85
2021/07/30 02:28:07;;;;;;;0.10;0.10;;;16.60;99.90;;;;;;5029504;28;20101;-85
2021/07/30 02:30:32;;;;;;;0.07;0.07;;;16.60;99.90;;;;;;5029842;28;20049;-85
2021/07/30 02:32:58;;;;;;;0.70;0.70;;;16.60;99.90;;;;;;5029705;28;20543;-85
2021/07/30 02:35:24;;;;;;;0.50;0.37;;;16.70;99.90;;;;;;5030637;28;20532;-85
2021/07/30 02:37:50;;;;;;;0.77;0.77;;;16.80;99.90;;;;;;5033815;28;20427;-85
2021/07/30 02:40:15;;;;;;;0.43;0.30;;;16.90;99.90;;;;;;5033343;28;20093;-85
2021/07/30 02:42:41;;;;;;;0.50;0.30;;;17.00;99.90;;;;;;5033567;28;20152;-85
2021/07/30 02:45:07;;;;;;;0.10;0.10;;;17.00;99.90;;;;;;5033591;28;20029;-85
2021/07/30 02:47:33;;;;;;;0.35;0.35;;;17.00;99.90;;;;;;5032076;28;20457;-85
2021/07/30 02:49:59;;;;;;;0.40;0.40;;;17.00;99.90;;;;;;5033442;28;20061;-85
2021/07/30 02:52:25;;;;;;;0.43;0.43;;;17.10;99.90;;;;;;5033226;28;20367;-85
2021/07/30 02:54:51;;;;;;;0.30;0.30;;;17.00;99.90;;;;;;5033680;28;20424;-85
2021/07/30 02:57:16;;;;;;;0.00;0.00;;;17.00;99.90;;;;;;5033195;28;20152;-86
2021/07/30 02:59:42;;;;;;;0.10;0.10;;;17.00;99.90;;;;;;5033345;28;20076;-85
2021/07/30 03:02:09;;;;;;;0.22;0.22;;;17.00;99.90;;;;;;5033104;28;20080;-85
2021/07/30 03:04:35;;;;;;;0.10;0.10;;;17.00;99.90;;;;;;5032972;28;20053;-85
2021/07/30 03:07:01;;;;;;;0.20;0.20;;;17.00;99.90;;;;;;5033077;28;20026;-85
2021/07/30 03:09:26;;;;;;;0.10;0.10;;;16.90;99.90;;;;;;5032843;28;20053;-85
2021/07/30 03:11:52;;;;;;;0.50;0.50;;;16.80;99.90;;;;;;5040599;28;20029;-85
2021/07/30 03:14:18;;;;;;;0.00;0.00;;;16.80;99.90;;;;;;5051431;28;20505;-85
2021/07/30 03:16:44;;;;;;;2.57;0.30;;;16.90;99.90;;;;;;5052788;28;20017;-86
2021/07/30 03:19:09;;;;;;;1.37;0.20;;;16.90;99.90;;;;;;5052879;28;20032;-85
2021/07/30 03:21:36;;;;;;;0.00;0.00;;;16.90;99.90;;;;;;5052800;28;20021;-85
2021/07/30 03:24:02;;;;;;;0.20;0.20;;;16.80;99.90;;;;;;5052572;28;20117;-85
2021/07/30 03:26:27;;;;;;;1.10;0.53;;;16.80;99.90;;;;;;5052595;28;20111;-85
2021/07/30 03:28:53;;;;;;;0.63;0.63;;;16.90;99.90;;;;;;5052584;28;20037;-85
2021/07/30 03:31:19;;;;;;;0.00;0.00;;;16.90;99.90;;;;;;5052398;28;20033;-85
2021/07/30 03:33:45;;;;;;;0.43;0.43;;;16.90;99.90;;;;;;5052385;28;20112;-85
2021/07/30 03:36:10;;;;;;;0.80;0.80;;;16.90;99.90;;;;;;5034572;28;20037;-85
2021/07/30 03:38:36;;;;;;;0.20;0.20;;;16.80;99.90;;;;;;5031032;28;20052;-85
2021/07/30 03:41:03;;;;;;;1.50;0.87;;;16.90;99.90;;;;;;5032437;28;20426;-85
2021/07/30 03:43:29;;;;;;;1.08;0.50;;;17.00;99.90;;;;;;5032215;28;20116;-85
2021/07/30 03:45:55;;;;;;;0.17;0.13;;;17.00;99.90;;;;;;5031852;28;20112;-85
2021/07/30 03:48:20;;;;;;;0.33;0.33;;;17.00;99.90;;;;;;5032330;28;20025;-84
2021/07/30 03:50:46;;;;;;;1.20;0.67;;;17.00;99.90;;;;;;5031980;28;20030;-85
2021/07/30 03:53:12;;;;;;;0.37;0.37;;;17.10;99.90;;;;;;5032131;28;20030;-85
2021/07/30 03:55:38;;;;;;;0.20;0.20;;;17.20;99.90;;;;;;5031911;28;20104;-85
2021/07/30 03:58:04;;;;;;;0.20;0.20;;;17.20;99.90;;;;;;5031999;28;20509;-85
2021/07/30 04:00:29;;;;;;;0.83;0.67;;;17.30;99.90;;;;;;5032372;28;20036;-85
2021/07/30 04:02:56;;;;;;;5.93;1.67;;;17.50;99.90;;;;;;5032498;28;20025;-85
2021/07/30 04:05:22;;;;;;;;;;;17.40;99.90;;;;;;5032697;28;20038;-85
2021/07/30 04:07:48;;;;;;;0.33;0.33;;;17.40;99.90;;;;;;5031752;28;20302;-85
2021/07/30 04:10:13;;;;;;;0.30;0.30;;;17.50;99.90;;;;;;5032127;28;20037;-86
2021/07/30 04:12:39;;;;;;;0.50;0.10;;;17.50;99.90;;;;;;5032082;28;20508;-85
2021/07/30 04:15:05;;;;;;;0.30;0.30;;;17.70;99.90;;;;;;5030456;28;20026;-85
2021/07/30 04:17:31;;;;;;;0.13;0.13;;;17.80;99.90;;;;;;5031932;28;20022;-86
2021/07/30 04:19:57;;;;;;;0.10;0.10;;;17.70;99.90;;;;;;5031897;28;20067;-85
2021/07/30 04:22:23;;;;;;;1.27;0.80;;;17.70;99.90;;;;;;5032000;28;20489;-85
2021/07/30 04:24:49;;;;;;;0.10;0.10;;;17.80;99.90;;;;;;5032007;28;20029;-85
2021/07/30 04:27:14;;;;;;;0.00;0.00;;;17.80;99.90;;;;;;5031385;28;20116;-85
2021/07/30 04:29:42;;;;;;;0.10;0.10;;;17.80;99.90;;;;;;5030593;28;20064;-85
2021/07/30 04:32:09;;;;;;;0.32;0.20;;;17.80;99.90;;;;;;5030379;28;20022;-85
2021/07/30 04:34:36;;;;;;;0.10;0.10;;;17.90;99.90;;;;;;5035778;28;20021;-85
2021/07/30 04:37:02;;;;;;;0.15;0.15;;;18.00;99.90;;;;;;5031828;28;20017;-85
2021/07/30 04:39:27;;;;;;;0.17;0.17;;;18.00;99.90;;;;;;5031481;28;20084;-85
2021/07/30 04:41:53;;;;;;;0.10;0.10;;;17.80;99.90;;;;;;5031119;28;20264;-85
2021/07/30 04:44:20;;;;;;;1.50;0.93;;;17.80;99.90;;;;;;5031700;28;20109;-86
2021/07/30 04:46:46;;;;;;;0.40;0.40;;;17.70;99.90;;;;;;5031298;28;20026;-85
2021/07/30 04:49:12;;;;;;;0.50;0.50;;;17.80;99.90;;;;;;5031505;28;20401;-85
2021/07/30 04:51:38;;;;;;;0.50;0.50;;;17.70;99.90;;;;;;5030274;28;20041;-85
2021/07/30 04:54:03;;;;;;;0.60;0.50;;;17.70;99.90;;;;;;5031760;28;20030;-85
2021/07/30 04:56:29;;;;;;;0.37;0.37;;;17.90;99.90;;;;;;5031412;28;20053;-85
2021/07/30 04:58:55;;;;;;;0.20;0.20;;;18.00;99.90;;;;;;5030689;28;20053;-85
2021/07/30 05:01:21;;;;;;;0.13;0.13;;;18.00;99.90;;;;;;5031604;28;20056;-85
2021/07/30 05:03:47;;;;;;;0.30;0.30;;;18.00;99.90;;;;;;5031192;28;20104;-85
2021/07/30 05:06:17;;;;;;;0.50;0.47;;;18.00;99.90;;;;;;5031259;28;20508;-85
2021/07/30 05:08:43;;;;;;;1.67;0.45;;;17.90;99.90;;;;;;5030012;28;20359;-85
2021/07/30 05:11:11;;;;;;;0.35;0.35;;;17.90;99.90;;;;;;5031126;28;20802;-85
2021/07/30 05:13:40;;;;;;;0.90;0.20;;;17.90;99.90;;;;;;5031190;28;20060;-85
2021/07/30 05:16:09;;;;;;;0.20;0.20;;;17.70;99.90;;;;;;5030692;28;20028;-85
2021/07/30 05:18:35;;;;;;;0.15;0.15;;;17.70;99.90;;;;;;5030791;28;20112;-85
2021/07/30 05:21:08;;;;;;;0.35;0.32;;;17.80;99.90;;;;;;5029267;28;20025;-85
2021/07/30 05:23:34;;;;;;;0.17;0.17;;;17.80;99.90;;;;;;5029402;28;20041;-85
2021/07/30 05:26:01;;;;;;;0.40;0.40;;;17.90;99.90;;;;;;5030619;28;20021;-85
2021/07/30 05:28:28;;;;;;;0.28;0.28;;;17.90;99.90;;;;;;5030562;28;20039;-85
2021/07/30 05:30:57;;;;;;;2.72;1.08;;;17.90;99.90;;;;;;5030418;28;20030;-85
2021/07/30 05:33:24;;;;;;;0.47;0.28;;;18.00;99.90;;;;;;5029096;28;20108;-86
2021/07/30 05:35:51;;;;;;;0.10;0.10;;;18.10;99.90;;;;;;5030972;28;20706;-85
2021/07/30 05:38:16;;;;;;;0.77;0.50;;;18.20;99.90;;;;;;5030503;28;20025;-86
2021/07/30 05:40:43;;;;;;;0.87;0.40;;;18.30;99.90;;;;;;5030662;28;20038;-86
2021/07/30 05:43:10;;;;;;;;;;;18.40;99.90;;;;;;5030793;28;20105;-86
2021/07/30 05:45:36;;;;;;;0.50;0.38;;;18.10;99.90;;;;;;5030341;28;19905;-85
2021/07/30 05:48:02;;;;;;;2.47;1.77;;;18.00;99.90;;;;;;5029946;28;20022;-85
2021/07/30 05:50:27;;;;;;;1.08;0.30;;;18.00;99.90;;;;;;5030280;28;20057;-85
2021/07/30 05:52:53;;;;;;;0.20;0.20;;;17.90;99.90;;;;;;5030180;28;20061;-85
2021/07/30 05:55:19;;;;;;;0.23;0.23;;;17.90;99.90;;;;;;5029895;28;20036;-85
2021/07/30 05:57:45;;;;;;;0.20;0.17;;;17.70;99.90;;;;;;5030023;28;20064;-85
2021/07/30 06:00:12;;;;;;;0.20;0.20;;;17.80;99.90;;;;;;5029816;28;20022;-85
2021/07/30 06:02:38;;;;;;;0.10;0.10;;;17.80;99.90;;;;;;5028482;28;20108;-85
2021/07/30 06:05:04;;;;;;;0.00;0.00;;;17.80;99.90;;;;;;5030148;28;20557;-85
2021/07/30 06:07:32;;;;;;;0.65;0.22;;;17.60;99.90;;;;;;5028407;28;20413;-85
2021/07/30 06:09:58;;;;;;;0.17;0.17;;;17.60;99.90;;;;;;5032087;28;20053;-84
2021/07/30 06:12:23;;;;;;;0.83;0.83;;;17.60;99.90;;;;;;5033782;28;20493;-85
2021/07/30 06:14:49;;;;;;;1.10;0.20;;;17.50;99.90;;;;;;5034271;28;20046;-85
2021/07/30 06:17:15;;;;;;;0.10;0.10;;;17.70;99.90;;;;;;5034051;28;20490;-85
2021/07/30 06:19:41;;;;;;;0.47;0.47;;;17.80;99.90;;;;;;5032591;28;20659;-85
2021/07/30 06:22:06;;;;;;;4.20;1.13;;;17.80;99.90;;;;;;5033939;28;20083;-85
2021/07/30 06:24:35;;;;;;;0.33;0.33;;;17.90;99.90;;;;;;5034132;28;20028;-85
2021/07/30 06:27:01;;;;;;;0.40;0.40;;;17.90;99.90;;;;;;5033959;28;20033;-85
2021/07/30 06:29:27;;;;;;;0.53;0.40;;;18.00;99.90;;;;;;5033549;28;20037;-84
2021/07/30 06:31:52;;;;;;;0.63;0.63;;;17.90;99.90;;;;;;5033373;28;20086;-85
2021/07/30 06:34:18;;;;;;;0.20;0.20;;;17.90;99.90;;;;;;5039408;28;20021;-85
2021/07/30 06:36:44;;;;;;;1.13;0.50;;;17.90;99.90;;;;;;5052457;28;20120;-85
2021/07/30 06:39:10;;;;;;;0.30;0.30;;;17.80;99.90;;;;;;5053136;28;20053;-84
2021/07/30 06:41:36;;;;;;;0.10;0.10;;;17.70;99.90;;;;;;5053345;28;20040;-85
2021/07/30 06:44:02;;;;;;;0.47;0.47;;;17.70;99.90;;;;;;5053125;28;20025;-84
2021/07/30 06:46:28;;;;;;;0.53;0.53;;;17.80;99.90;;;;;;5052743;28;20040;-84
2021/07/30 06:48:53;;;;;;;0.20;0.20;;;17.90;99.90;;;;;;5052880;28;20032;-84
2021/07/30 06:51:19;;;;;;;0.20;0.20;;;18.00;99.90;;;;;;5052641;28;20106;-85
2021/07/30 06:53:45;;;;;;;0.37;0.30;;;17.80;99.90;;;;;;5052950;28;20423;-84
2021/07/30 06:56:12;;;;;;;5.40;0.80;;;18.00;99.90;;;;;;5052757;28;20064;-85
2021/07/30 06:58:38;;;;;;;0.50;0.30;;;18.20;99.90;;;;;;5053092;28;20025;-84
2021/07/30 07:01:05;;;;;;;0.30;0.10;;;18.40;99.90;;;;;;5052908;28;20055;-84
2021/07/30 07:03:31;;;;;;;0.00;0.00;;;19.00;99.90;;;;;;5052519;28;20029;-84
2021/07/30 07:05:57;;;;;;;0.13;0.13;;;19.60;99.90;;;;;;5052661;28;20036;-84
2021/07/30 07:08:23;;;;;;;0.15;0.15;;;19.90;99.90;;;;;;5052799;28;20538;-85
2021/07/30 07:10:49;;;;;;;0.00;0.00;;;19.70;99.90;;;;;;5052857;28;20021;-85
2021/07/30 07:13:16;;;;;;;0.60;0.53;;;19.70;99.90;;;;;;5052684;28;20052;-85
2021/07/30 07:15:42;;;;;;;;;;;19.80;99.90;;;;;;5053118;28;20079;-85
2021/07/30 07:18:08;;;;;;;0.20;0.20;;;19.60;99.90;;;;;;5052666;28;19940;-85
2021/07/30 07:20:34;;;;;;;0.17;0.17;;;19.20;99.90;;;;;;5052266;28;20053;-85
2021/07/30 07:23:00;;;;;;;0.20;0.20;;;19.30;99.90;;;;;;5052407;28;20040;-85
2021/07/30 07:25:26;;;;;;;0.30;0.23;;;19.10;99.90;;;;;;5051051;28;20035;-84
2021/07/30 07:27:51;;;;;;;0.20;0.20;;;18.90;99.90;;;;;;5052555;28;20025;-85
2021/07/30 07:30:17;;;;;;;0.40;0.40;;;18.70;99.90;;;;;;5052431;28;20017;-85
2021/07/30 07:32:43;;;;;;;0.17;0.17;;;18.50;99.90;;;;;;5052237;28;20090;-84
2021/07/30 07:35:09;;;;;;;0.60;0.60;;;18.50;99.90;;;;;;5051966;28;20055;-85
2021/07/30 07:37:35;;;;;;;0.88;0.50;;;18.50;99.90;;;;;;5052041;28;20041;-85
2021/07/30 07:40:00;;;;;;;0.40;0.40;;;18.50;99.90;;;;;;5052531;28;20447;-85
2021/07/30 07:42:26;;;;;;;1.30;0.53;;;18.50;99.90;;;;;;5050752;28;20052;-84
2021/07/30 07:44:52;;;;;;;0.17;0.17;;;18.60;99.90;;;;;;5052214;28;20025;-84
2021/07/30 07:47:18;;;;;;;0.20;0.20;;;18.70;99.90;;;;;;5052145;28;20051;-84
2021/07/30 07:49:44;;;;;;;0.10;0.10;;;18.80;99.90;;;;;;5051942;28;20029;-85
2021/07/30 07:52:09;;;;;;;0.30;0.30;;;19.00;99.90;;;;;;5052120;28;20033;-85
2021/07/30 07:54:35;;;;;;;0.67;0.67;;;19.00;99.90;;;;;;5050779;28;20025;-85
2021/07/30 07:57:04;;;;;;;0.63;0.63;;;19.10;99.90;;;;;;5050762;28;20057;-85
2021/07/30 07:59:36;;;;;;;0.30;0.30;;;19.10;99.90;;;;;;5050612;28;20033;-84
2021/07/30 08:02:06;;;;;;;0.80;0.80;;;18.90;99.90;;;;;;5051955;28;20040;-85
2021/07/30 08:04:32;;;;;;;0.85;0.50;;;18.90;99.90;;;;;;5051955;28;20035;-84
2021/07/30 08:07:00;;;;;;;0.10;0.10;;;18.80;99.90;;;;;;5052043;28;20576;-85
2021/07/30 08:09:25;;;;;;;0.30;0.30;;;18.80;99.90;;;;;;5052104;28;20061;-84
2021/07/30 08:11:51;;;;;;;0.20;0.20;;;19.00;99.90;;;;;;5051647;28;20075;-85
2021/07/30 08:14:17;;;;;;;0.20;0.20;;;19.20;99.90;;;;;;5051634;28;20025;-85
2021/07/30 08:16:45;;;;;;;0.10;0.10;;;19.00;99.90;;;;;;5051694;28;20017;-85
2021/07/30 08:19:11;;;;;;;0.32;0.32;;;18.60;99.90;;;;;;5051445;28;20017;-84
2021/07/30 08:21:37;;;;;;;0.40;0.40;;;18.10;99.90;;;;;;5051271;28;20481;-84
2021/07/30 08:24:03;;;;;;;0.47;0.47;;;18.00;99.90;;;;;;5051653;28;20025;-85
2021/07/30 08:26:29;;;;;;;0.30;0.30;;;17.80;99.90;;;;;;5050129;28;20025;-85
2021/07/30 08:28:55;;;;;;;0.70;0.70;;;17.70;99.90;;;;;;5050790;28;20099;-85
2021/07/30 08:31:24;;;;;;;0.23;0.23;;;17.80;99.90;;;;;;5051155;28;20836;-85
2021/07/30 08:33:51;;;;;;;0.10;0.10;;;18.00;99.90;;;;;;5050152;28;20025;-84
2021/07/30 08:36:16;;;;;;;0.38;0.20;;;17.90;99.90;;;;;;5031415;28;20025;-84
2021/07/30 08:38:42;;;;;;;0.30;0.30;;;17.80;99.90;;;;;;5031419;28;20041;-84
2021/07/30 08:41:08;;;;;;;0.50;0.23;;;17.60;99.90;;;;;;5031414;28;20045;-84
2021/07/30 08:43:35;;;;;;;0.38;0.38;;;17.50;99.90;;;;;;5030186;28;20553;-84
2021/07/30 08:46:01;;;;;;;0.25;0.25;;;17.70;99.90;;;;;;5031343;28;20179;-84
2021/07/30 08:48:33;;;;;;;4.18;0.43;;;17.90;99.90;;;;;;5031473;28;20037;-84
2021/07/30 08:51:02;;;;;;;0.28;0.28;;;17.90;99.90;;;;;;5031368;28;20107;-84
2021/07/30 08:53:28;;;;;;;0.52;0.52;;;17.90;99.90;;;;;;5029846;28;20488;-84
2021/07/30 08:55:54;;;;;;;0.20;0.20;;;17.80;99.90;;;;;;5030923;28;20033;-84
2021/07/30 08:58:20;;;;;;;0.40;0.40;;;17.60;99.90;;;;;;5030953;28;20013;-84
2021/07/30 09:00:47;;;;;;;0.20;0.20;;;17.60;99.90;;;;;;5030860;28;20046;-85
2021/07/30 09:03:13;;;;;;;;;;;17.40;99.90;;;;;;5031262;28;20017;-84
2021/07/30 09:05:40;;;;;;;0.45;0.38;;;17.30;99.90;;;;;;5030537;28;19912;-84
2021/07/30 09:08:07;;;;;;;;;;;17.30;99.90;;;;;;5030909;28;20037;-85
2021/07/30 09:10:40;;;;;;;0.10;0.10;;;17.30;99.90;;;;;;5029198;28;19916;-84
2021/07/30 09:13:22;;;;;;;0.10;0.10;;;17.30;99.90;;;;;;5030278;28;20026;-84
2021/07/30 09:16:02;;;;;;;0.90;0.60;;;17.30;99.90;;;;;;5030092;28;20075;-85
2021/07/30 09:18:39;;;;;;;0.20;0.20;;;17.30;99.90;;;;;;5028912;28;20021;-85
2021/07/30 09:21:30;;;;;;;0.52;0.47;;;17.30;99.90;;;;;;5030386;28;20565;-85
2021/07/30 09:24:08;;;;;;;0.30;0.30;;;17.30;99.90;;;;;;5028961;28;20021;-85
2021/07/30 09:26:39;;;;;;;0.10;0.10;;;17.60;99.90;;;;;;5030073;28;20061;-85
2021/07/30 09:29:08;;;;;;;0.35;0.35;;;17.70;99.90;;;;;;5029924;28;20040;-85
2021/07/30 09:31:45;;;;;;;0.35;0.35;;;17.90;99.90;;;;;;5030006;28;20033;-84
2021/07/30 09:34:22;;;;;;;0.30;0.30;;;18.10;99.90;;;;;;5034914;28;20020;-84
2021/07/30 09:36:55;;;;;;;0.00;0.00;;;17.80;99.90;;;;;;5050123;28;20471;-85
2021/07/30 09:39:42;;;;;;;1.65;0.82;;;17.60;99.90;;;;;;5049967;28;20036;-84
2021/07/30 09:42:13;;;;;;;0.38;0.10;;;17.50;99.90;;;;;;5049704;28;20048;-85
2021/07/30 09:44:41;;;;;;;0.28;0.28;;;17.40;99.90;;;;;;5049706;28;20020;-84
2021/07/30 09:47:19;;;;;;;0.20;0.20;;;17.50;99.90;;;;;;5049905;28;20035;-84
2021/07/30 09:50:03;;;;;;;0.45;0.45;;;17.60;99.90;;;;;;5048879;28;20017;-84
2021/07/30 09:52:34;;;;;;;0.10;0.10;;;17.70;99.90;;;;;;5050269;28;20448;-84
2021/07/30 09:55:04;;;;;;;1.10;0.45;;;17.80;99.90;;;;;;5048907;28;20029;-84
2021/07/30 09:57:36;;;;;;;0.13;0.13;;;17.90;99.90;;;;;;5050002;28;20073;-84
2021/07/30 10:00:09;;;;;;;0.47;0.35;;;18.10;99.90;;;;;;5050172;28;20075;-85
2021/07/30 10:02:37;;;;;;;0.65;0.65;;;18.10;99.90;;;;;;5049950;28;20438;-85
2021/07/30 10:05:05;;;;;;;1.20;0.47;;;18.00;99.90;;;;;;5049708;28;20079;-85
2021/07/30 10:07:32;;;;;;;0.22;0.22;;;18.40;99.90;;;;;;5050094;28;20094;-85
2021/07/30 10:10:04;;;;;;;0.22;0.22;;;18.50;99.90;;;;;;5049829;28;20094;-85
2021/07/30 10:12:31;;;;;;;1.98;0.52;;;18.60;99.90;;;;;;5042284;28;20033;-84
2021/07/30 10:14:59;;;;;;;0.55;0.55;;;18.80;99.90;;;;;;5029953;28;20021;-85
2021/07/30 10:17:30;;;;;;;0.45;0.17;;;18.80;99.90;;;;;;5029847;28;20049;-85
2021/07/30 10:19:58;;;;;;;0.13;0.10;;;19.30;99.90;;;;;;5030069;28;20022;-85
2021/07/30 10:22:25;;;;;;;0.30;0.28;;;19.50;99.90;;;;;;5028290;28;20033;-85
2021/07/30 10:24:54;;;;;;;0.45;0.45;;;19.40;99.90;;;;;;5029932;28;20489;-85
2021/07/30 10:27:22;;;;;;;6.65;0.85;;;19.10;99.90;;;;;;5029557;28;20033;-85
2021/07/30 10:30:09;;;;;;;0.15;0.15;;;18.80;99.90;;;;;;5029567;28;20033;-85
2021/07/30 10:32:50;;;;;;;0.10;0.10;;;18.80;99.90;;;;;;5028190;28;20033;-85
2021/07/30 10:35:27;;;;;;;0.30;0.30;;;19.70;99.90;;;;;;5033353;28;20014;-85
2021/07/30 10:38:15;;;;;;;0.40;0.40;;;20.00;99.90;;;;;;5027845;28;20021;-84
2021/07/30 10:40:43;;;;;;;0.25;0.25;;;19.80;99.90;;;;;;5029689;28;20029;-85
2021/07/30 10:43:15;;;;;;;0.65;0.20;;;19.40;99.90;;;;;;5027794;28;20025;-85
2021/07/30 10:46:11;;;;;;;0.55;0.40;;;19.50;99.90;;;;;;5029723;28;20052;-85
2021/07/30 10:48:44;;;;;;;0.10;0.10;;;19.50;99.90;;;;;;5029557;28;20040;-85
2021/07/30 10:51:21;;;;;;;0.45;0.32;;;19.50;99.90;;;;;;5028009;28;20111;-85
2021/07/30 10:53:53;;;;;;;0.25;0.25;;;19.30;99.90;;;;;;5029650;28;20026;-85
2021/07/30 10:56:22;;;;;;;0.35;0.20;;;19.30;99.90;;;;;;5030161;28;20068;-85
2021/07/30 10:58:52;;;;;;;0.20;0.20;;;19.20;99.90;;;;;;5031920;28;20021;-85
2021/07/30 11:01:27;;;;;;;1.65;0.25;;;19.20;99.90;;;;;;5033279;28;20026;-85
2021/07/30 11:03:52;;;;;;;0.00;0.00;;;18.80;99.90;;;;;;5033222;28;20034;-85
2021/07/30 11:06:23;;;;;;;0.20;0.20;;;19.00;99.90;;;;;;5033130;28;20025;-85
2021/07/30 11:09:02;;;;;;;0.00;0.00;;;19.40;99.90;;;;;;5033268;28;20393;-85
2021/07/30 11:11:52;;;;;;;0.90;0.28;;;19.80;99.90;;;;;;5031717;28;20057;-85
2021/07/30 11:14:31;;;;;;;0.20;0.20;;;19.30;99.90;;;;;;5031732;28;20036;-85
2021/07/30 11:16:57;;;;;;;0.25;0.25;;;18.90;99.90;;;;;;5032913;28;20022;-85
2021/07/30 11:19:33;;;;;;;0.20;0.20;;;19.30;99.90;;;;;;5032826;28;20025;-84
2021/07/30 11:22:05;;;;;;;0.13;0.13;;;19.60;99.90;;;;;;5032975;28;20037;-84
2021/07/30 11:24:35;;;;;;;0.52;0.40;;;19.60;99.90;;;;;;5033031;28;20057;-84
2021/07/30 11:27:01;;;;;;;0.00;0.00;;;19.40;99.90;;;;;;5033577;28;20075;-84
2021/07/30 11:29:28;;;;;;;0.70;0.40;;;19.80;99.90;;;;;;5033011;28;20029;-84
2021/07/30 11:32:03;;;;;;;0.22;0.22;;;19.70;99.90;;;;;;5033040;28;20448;-84
2021/07/30 11:34:35;;;;;;;0.55;0.55;;;19.80;99.90;;;;;;5036862;28;20802;-84
2021/07/30 11:37:03;;;;;;;0.00;0.00;;;19.60;99.90;;;;;;5032963;28;20394;-84
2021/07/30 11:39:55;;;;;;;0.57;0.50;;;19.50;99.90;;;;;;5032675;28;20146;-84
2021/07/30 11:42:25;;;;;;;0.28;0.28;;;19.50;99.90;;;;;;5032721;28;20045;-84
2021/07/30 11:44:52;;;;;;;0.43;0.43;;;19.70;99.90;;;;;;5031664;28;20409;-84
2021/07/30 11:47:19;;;;;;;1.50;0.65;;;19.90;99.90;;;;;;5031716;28;20044;-84
2021/07/30 11:49:47;;;;;;;1.10;0.28;;;20.20;99.90;;;;;;5033038;28;20108;-84
2021/07/30 11:52:21;;;;;;;0.10;0.10;;;20.50;99.90;;;;;;5032973;28;20022;-85
2021/07/30 11:54:47;;;;;;;0.52;0.52;;;20.90;99.90;;;;;;5032646;28;20052;-84
2021/07/30 11:57:29;;;;;;;0.68;0.63;;;21.20;99.90;;;;;;5031196;28;20052;-84
2021/07/30 11:59:55;;;;;;;0.00;0.00;;;21.60;99.90;;;;;;5031304;28;20029;-85
2021/07/30 12:02:25;;;;;;;8.82;0.22;;;22.00;99.90;;;;;;5032363;28;20463;-85
2021/07/30 12:04:53;;;;;;;0.30;0.30;;;21.30;99.90;;;;;;5032435;28;20534;-85
2021/07/30 12:07:31;;;;;;;0.20;0.20;;;21.00;99.90;;;;;;5032121;28;20777;-85
2021/07/30 12:09:59;;;;;;;0.20;0.20;;;20.90;99.90;;;;;;5032228;28;20022;-85
2021/07/30 12:12:28;;;;;;;0.52;0.40;;;20.90;99.90;;;;;;5031674;28;20041;-85
2021/07/30 12:14:59;;;;;;;0.45;0.20;;;20.70;99.90;;;;;;5030756;28;20397;-85
2021/07/30 12:17:32;;;;;;;0.73;0.73;;;20.60;99.90;;;;;;5031995;28;20033;-85
2021/07/30 12:20:03;;;;;;;0.43;0.43;;;20.50;99.90;;;;;;5031974;28;20195;-85
2021/07/30 12:22:46;;;;;;;1.02;0.30;;;20.70;99.90;;;;;;5031876;28;20552;-85
2021/07/30 12:25:43;;;;;;;0.10;0.10;;;20.70;99.90;;;;;;5030879;28;20021;-85
2021/07/30 12:28:14;;;;;;;0.22;0.20;;;20.70;99.90;;;;;;5031972;28;20056;-85
2021/07/30 12:30:40;;;;;;;0.00;0.00;;;20.80;99.90;;;;;;5031601;28;20025;-85
2021/07/30 12:33:25;;;;;;;0.68;0.68;;;21.10;99.90;;;;;;5031432;28;20037;-85
2021/07/30 12:36:05;;;;;;;1.17;0.70;;;21.10;99.90;;;;;;5039617;28;20029;-85
2021/07/30 12:38:31;;;;;;;0.20;0.20;;;21.30;99.90;;;;;;5031402;28;20687;-85
2021/07/30 12:41:17;;;;;;;0.20;0.13;;;21.60;99.90;;;;;;5031371;28;20025;-85
2021/07/30 12:43:45;;;;;;;0.00;0.00;;;21.60;99.90;;;;;;5031534;28;20095;-85
2021/07/30 12:46:33;;;;;;;0.85;0.52;;;21.60;99.90;;;;;;5031365;28;20038;-85
2021/07/30 12:48:59;;;;;;;0.00;0.00;;;21.90;99.90;;;;;;5030848;28;20543;-85
2021/07/30 12:51:26;;;;;;;0.30;0.30;;;21.80;99.90;;;;;;5031515;28;20053;-85
2021/07/30 12:54:04;;;;;;;0.40;0.30;;;21.80;99.90;;;;;;5031345;28;20782;-85
2021/07/30 12:56:53;;;;;;;0.60;0.15;;;22.10;99.90;;;;;;5029782;28;20374;-85